createdAt,value
2023-04-28T00:01:04.966Z,101342.47
2023-04-28T00:03:53.435Z,101347.56
2023-04-28T00:06:40.190Z,101341.41
2023-04-28T00:09:26.542Z,101319.59
2023-04-28T00:12:12.833Z,101316.59
2023-04-28T00:14:59.187Z,101310.00
2023-04-28T00:17:45.590Z,101299.50
2023-04-28T00:20:33.316Z,101295.34
2023-04-28T00:23:19.629Z,101287.03
2023-04-28T00:26:06.110Z,101281.13
2023-04-28T00:28:52.400Z,101282.16
2023-04-28T00:31:38.701Z,101273.09
2023-04-28T00:34:25.069Z,101257.88
2023-04-28T00:37:12.850Z,101262.13
2023-04-28T00:39:58.997Z,101259.22
2023-04-28T00:42:45.150Z,101265.53
2023-04-28T00:45:31.775Z,101255.56
2023-04-28T00:48:18.559Z,101258.66
2023-04-28T00:51:06.647Z,101264.28
2023-04-28T00:53:55.187Z,101243.28
2023-04-28T00:56:41.735Z,101227.25
2023-04-28T00:59:27.959Z,101232.75
2023-04-28T01:02:17.549Z,101235.91
2023-04-28T01:05:05.010Z,101237.44
2023-04-28T01:07:52.361Z,101227.19
2023-04-28T01:10:45.078Z,101237.44
2023-04-28T01:13:39.637Z,101228.59
2023-04-28T01:16:26.900Z,101231.13
2023-04-28T01:19:21.552Z,101240.53
2023-04-28T01:22:10.265Z,101234.47
2023-04-28T01:25:00.235Z,101235.09
2023-04-28T01:27:46.782Z,101232.91
2023-04-28T01:30:32.861Z,101217.28
2023-04-28T01:33:18.851Z,101209.69
2023-04-28T01:36:05.482Z,101207.25
2023-04-28T01:38:51.893Z,101203.25
2023-04-28T01:41:39.383Z,101190.13
2023-04-28T01:44:26.265Z,101187.38
2023-04-28T01:47:12.390Z,101192.66
2023-04-28T01:49:59.001Z,101182.06
2023-04-28T01:52:45.047Z,101189.00
2023-04-28T01:55:31.023Z,101179.19
2023-04-28T01:58:19.785Z,101186.75
2023-04-28T02:01:06.784Z,101193.91
2023-04-28T02:03:55.163Z,101185.09
2023-04-28T02:06:43.148Z,101171.53
2023-04-28T02:09:32.158Z,101164.13
2023-04-28T02:12:18.517Z,101157.84
2023-04-28T02:15:08.063Z,101166.44
2023-04-28T02:17:54.318Z,101168.41
2023-04-28T02:20:40.938Z,101164.91
2023-04-28T02:23:27.716Z,101157.66
2023-04-28T02:26:14.521Z,101157.19
2023-04-28T02:29:01.485Z,101141.88
2023-04-28T02:31:52.580Z,101135.97
2023-04-28T02:34:39.095Z,101135.25
2023-04-28T02:37:27.143Z,101126.69
2023-04-28T02:40:14.550Z,101118.16
2023-04-28T02:43:00.754Z,101118.44
2023-04-28T02:45:47.233Z,101112.00
2023-04-28T02:48:37.274Z,101116.81
2023-04-28T02:51:23.736Z,101111.63
2023-04-28T02:54:10.024Z,101106.59
2023-04-28T02:56:57.751Z,101103.53
2023-04-28T02:59:44.068Z,101105.19
2023-04-28T03:02:30.187Z,101100.66
2023-04-28T03:05:18.139Z,101094.81
2023-04-28T03:08:04.889Z,101083.66
2023-04-28T03:10:51.173Z,101082.69
2023-04-28T03:13:37.397Z,101085.41
2023-04-28T03:16:24.233Z,101093.81
2023-04-28T03:19:10.945Z,101094.59
2023-04-28T03:21:58.388Z,101095.81
2023-04-28T03:24:44.532Z,101091.16
2023-04-28T03:27:31.301Z,101094.69
2023-04-28T03:30:18.039Z,101088.47
2023-04-28T03:33:05.772Z,101087.22
2023-04-28T03:35:53.557Z,101087.88
2023-04-28T03:38:41.668Z,101085.66
2023-04-28T03:41:28.331Z,101075.31
2023-04-28T03:44:34.014Z,101069.44
2023-04-28T03:47:21.313Z,101066.38
2023-04-28T03:50:09.054Z,101059.16
2023-04-28T03:52:55.268Z,101057.38
2023-04-28T03:55:43.815Z,101059.13
2023-04-28T03:58:32.673Z,101055.06
2023-04-28T04:01:20.606Z,101043.47
2023-04-28T04:04:08.353Z,101037.75
2023-04-28T04:06:55.018Z,101037.88
2023-04-28T04:09:41.678Z,101046.59
2023-04-28T04:12:30.621Z,101042.28
2023-04-28T04:15:17.338Z,101039.41
2023-04-28T04:18:04.906Z,101036.97
2023-04-28T04:21:06.128Z,101033.69
2023-04-28T04:23:52.644Z,101027.56
2023-04-28T04:26:39.102Z,101030.81
2023-04-28T04:29:42.179Z,101026.47
2023-04-28T04:32:32.275Z,101021.50
2023-04-28T04:35:19.433Z,101016.84
2023-04-28T04:38:07.361Z,101010.91
2023-04-28T04:40:54.526Z,101007.59
2023-04-28T04:43:40.956Z,101002.78
2023-04-28T04:46:28.783Z,100998.38
2023-04-28T04:49:15.503Z,100989.88
2023-04-28T04:52:02.886Z,100976.56
2023-04-28T04:54:49.426Z,100988.13
2023-04-28T04:57:36.151Z,100983.16
2023-04-28T05:00:29.169Z,100978.53
2023-04-28T05:03:17.244Z,100968.09
2023-04-28T05:06:04.274Z,100972.53
2023-04-28T05:09:03.407Z,100979.00
2023-04-28T05:11:52.472Z,100973.06
2023-04-28T05:14:39.142Z,100973.00
2023-04-28T05:17:25.797Z,100973.22
2023-04-28T05:20:14.044Z,100992.03
2023-04-28T05:23:00.510Z,100978.38
2023-04-28T05:25:47.160Z,100980.25
2023-04-28T05:28:34.372Z,100968.66
2023-04-28T05:31:21.458Z,100974.41
2023-04-28T05:34:07.876Z,100967.75
2023-04-28T05:36:55.737Z,100966.13
2023-04-28T05:39:45.088Z,100961.94
2023-04-28T05:42:32.184Z,100948.38
2023-04-28T05:45:18.742Z,100941.13
2023-04-28T05:48:05.992Z,100941.22
2023-04-28T05:50:52.704Z,100956.19
2023-04-28T05:53:40.444Z,100958.88
2023-04-28T05:56:26.773Z,100953.91
2023-04-28T05:59:13.729Z,100936.72
2023-04-28T06:02:02.776Z,100938.69
2023-04-28T06:04:50.116Z,100929.53
2023-04-28T06:07:37.446Z,100928.22
2023-04-28T06:10:27.304Z,100907.38
2023-04-28T06:13:14.677Z,100930.25
2023-04-28T06:16:02.078Z,100924.22
2023-04-28T06:18:49.688Z,100935.28
2023-04-28T06:21:37.288Z,100930.16
2023-04-28T06:24:23.589Z,100914.91
2023-04-28T06:27:14.066Z,100916.69
2023-04-28T06:30:00.304Z,100923.91
2023-04-28T06:32:46.928Z,100916.31
2023-04-28T06:35:35.750Z,100922.41
2023-04-28T06:38:22.236Z,100917.81
2023-04-28T06:41:08.570Z,100922.41
2023-04-28T06:43:56.361Z,100909.94
2023-04-28T06:46:49.447Z,100912.97
2023-04-28T06:49:36.125Z,100904.69
2023-04-28T06:52:27.069Z,100892.22
2023-04-28T06:55:20.411Z,100889.09
2023-04-28T06:58:06.834Z,100897.03
2023-04-28T07:00:55.309Z,100886.81
2023-04-28T07:03:45.557Z,100884.41
2023-04-28T07:06:32.467Z,100882.16
2023-04-28T07:09:18.676Z,100881.25
2023-04-28T07:12:05.723Z,100867.22
2023-04-28T07:14:51.918Z,100870.28
2023-04-28T07:17:39.774Z,100867.25
2023-04-28T07:20:26.434Z,100862.06
2023-04-28T07:23:12.802Z,100861.78
2023-04-28T07:25:59.311Z,100856.63
2023-04-28T07:28:45.979Z,100873.25
2023-04-28T07:31:32.536Z,100870.13
2023-04-28T07:34:20.255Z,100884.78
2023-04-28T07:37:07.590Z,100878.59
2023-04-28T07:39:54.626Z,100879.53
2023-04-28T07:42:41.769Z,100872.84
2023-04-28T07:45:28.264Z,100868.44
2023-04-28T07:48:14.695Z,100868.47
2023-04-28T07:51:04.298Z,100870.28
2023-04-28T07:53:51.273Z,100876.69
2023-04-28T07:56:37.279Z,100865.28
2023-04-28T07:59:23.670Z,100865.81
2023-04-28T08:02:13.455Z,100853.50
2023-04-28T08:05:00.486Z,100842.56
2023-04-28T08:07:51.316Z,100852.66
2023-04-28T08:10:38.189Z,100854.47
2023-04-28T08:13:24.889Z,100842.38
2023-04-28T08:16:11.690Z,100835.31
2023-04-28T08:18:59.670Z,100829.16
2023-04-28T08:21:46.384Z,100832.63
2023-04-28T08:24:35.181Z,100822.91
2023-04-28T08:27:23.513Z,100819.81
2023-04-28T08:30:11.981Z,100819.41
2023-04-28T08:32:58.568Z,100813.41
2023-04-28T08:35:45.322Z,100812.25
2023-04-28T08:38:32.047Z,100815.69
2023-04-28T08:41:21.825Z,100824.91
2023-04-28T08:44:09.990Z,100823.22
2023-04-28T08:47:00.384Z,100830.38
2023-04-28T08:49:50.368Z,100829.13
2023-04-28T08:52:37.443Z,100831.84
2023-04-28T08:55:25.316Z,100832.44
2023-04-28T08:58:13.366Z,100831.84
2023-04-28T09:00:59.764Z,100832.25
2023-04-28T09:03:47.688Z,100829.97
2023-04-28T09:06:36.506Z,100820.31
2023-04-28T09:09:24.948Z,100819.25
2023-04-28T09:12:12.768Z,100821.63
2023-04-28T09:15:09.087Z,100830.19
2023-04-28T09:17:56.515Z,100812.97
2023-04-28T09:20:43.261Z,100818.69
2023-04-28T09:23:29.614Z,100831.88
2023-04-28T09:26:15.856Z,100833.94
2023-04-28T09:29:13.707Z,100824.75
2023-04-28T09:32:17.757Z,100832.09
2023-04-28T09:35:07.312Z,100828.72
2023-04-28T09:37:59.830Z,100830.00
2023-04-28T09:40:57.788Z,100835.03
2023-04-28T09:43:44.394Z,100831.44
2023-04-28T09:46:30.925Z,100828.28
2023-04-28T09:49:19.264Z,100825.56
2023-04-28T09:52:13.662Z,100825.97
2023-04-28T09:55:02.317Z,100824.25
2023-04-28T09:57:50.666Z,100830.59
2023-04-28T10:00:38.130Z,100827.88
2023-04-28T10:03:29.085Z,100832.72
2023-04-28T10:06:18.579Z,100833.53
2023-04-28T10:09:06.613Z,100841.72
2023-04-28T10:11:53.541Z,100846.13
2023-04-28T10:14:40.895Z,100851.16
2023-04-28T10:17:29.370Z,100852.19
2023-04-28T10:20:16.952Z,100855.72
2023-04-28T10:23:31.525Z,100851.78
2023-04-28T10:30:37.618Z,100836.06
2023-04-28T10:33:27.304Z,100836.84
2023-04-28T10:36:50.898Z,100829.19
2023-04-28T10:39:39.011Z,100827.25
2023-04-28T10:42:54.311Z,100834.47
2023-04-28T10:46:02.795Z,100833.75
2023-04-28T10:48:57.056Z,100838.16
2023-04-28T10:51:43.045Z,100839.47
2023-04-28T10:54:30.526Z,100845.25
2023-04-28T10:57:22.730Z,100840.88
2023-04-28T11:00:36.673Z,100834.66
2023-04-28T11:03:50.953Z,100828.03
2023-04-28T11:06:42.705Z,100831.53
2023-04-28T11:09:50.428Z,100816.38
2023-04-28T11:12:38.095Z,100826.16
2023-04-28T11:15:24.475Z,100810.75
2023-04-28T11:18:18.380Z,100807.94
2023-04-28T11:21:05.222Z,100803.09
2023-04-28T11:23:52.625Z,100798.47
2023-04-28T11:26:39.476Z,100803.31
2023-04-28T11:29:35.164Z,100802.09
2023-04-28T11:32:27.739Z,100811.34
2023-04-28T11:35:14.359Z,100802.41
2023-04-28T11:38:04.964Z,100804.66
2023-04-28T11:40:58.369Z,100797.81
2023-04-28T11:43:47.367Z,100808.13
2023-04-28T11:46:35.544Z,100799.75
2023-04-28T11:49:24.358Z,100808.69
2023-04-28T11:52:11.971Z,100804.94
2023-04-28T11:55:00.858Z,100810.03
2023-04-28T11:57:47.157Z,100810.41
2023-04-28T12:00:33.851Z,100812.63
2023-04-28T12:03:21.975Z,100814.09
2023-04-28T12:06:09.164Z,100804.66
2023-04-28T12:08:55.710Z,100812.63
2023-04-28T12:11:53.542Z,100810.50
2023-04-28T12:14:56.788Z,100823.09
2023-04-28T12:17:45.355Z,100822.63
2023-04-28T12:20:37.992Z,100821.59
2023-04-28T12:23:31.244Z,100823.97
2023-04-28T12:26:26.460Z,100825.63
2023-04-28T12:29:38.176Z,100833.47
2023-04-28T12:32:39.744Z,100830.19
2023-04-28T12:35:27.352Z,100832.00
2023-04-28T12:38:15.902Z,100831.72
2023-04-28T12:41:02.111Z,100837.28
2023-04-28T12:43:48.720Z,100831.84
2023-04-28T12:46:35.153Z,100832.84
2023-04-28T12:49:21.721Z,100838.00
2023-04-28T12:52:19.709Z,100837.19
2023-04-28T12:55:09.228Z,100837.13
2023-04-28T12:57:56.007Z,100835.50
2023-04-28T13:00:42.953Z,100833.47
2023-04-28T13:03:29.516Z,100836.34
2023-04-28T13:06:15.707Z,100831.25
2023-04-28T13:09:03.503Z,100837.41
2023-04-28T13:11:53.510Z,100839.31
2023-04-28T13:14:39.927Z,100835.22
2023-04-28T13:17:27.143Z,100834.47
2023-04-28T13:20:13.783Z,100842.25
2023-04-28T13:23:00.030Z,100842.81
2023-04-28T13:25:46.520Z,100841.16
2023-04-28T13:28:34.078Z,100835.16
2023-04-28T13:31:20.944Z,100835.94
2023-04-28T13:34:08.824Z,100841.97
2023-04-28T13:36:55.537Z,100837.75
2023-04-28T13:39:42.048Z,100845.06
2023-04-28T13:42:29.106Z,100842.81
2023-04-28T13:45:17.711Z,100847.91
2023-04-28T13:48:04.765Z,100846.06
2023-04-28T13:50:52.088Z,100852.19
2023-04-28T13:53:41.975Z,100857.06
2023-04-28T13:56:28.536Z,100860.66
2023-04-28T13:59:14.979Z,100868.28
2023-04-28T14:02:02.553Z,100869.56
2023-04-28T14:04:50.727Z,100877.00
2023-04-28T14:07:37.677Z,100879.69
2023-04-28T14:10:24.149Z,100887.84
2023-04-28T14:13:10.947Z,100895.13
2023-04-28T14:15:59.633Z,100896.06
2023-04-28T14:18:47.890Z,100901.38
2023-04-28T14:21:34.520Z,100898.69
2023-04-28T14:24:21.513Z,100889.84
2023-04-28T14:27:08.206Z,100896.13
2023-04-28T14:29:54.629Z,100897.91
2023-04-28T14:32:41.449Z,100897.25
2023-04-28T14:35:31.812Z,100901.97
2023-04-28T14:38:18.799Z,100907.97
2023-04-28T14:41:05.034Z,100897.72
2023-04-28T14:43:51.538Z,100890.06
2023-04-28T14:46:38.700Z,100894.81
2023-04-28T14:49:27.494Z,100898.25
2023-04-28T14:52:15.748Z,100890.81
2023-04-28T14:55:03.111Z,100903.41
2023-04-28T14:57:49.194Z,100904.91
2023-04-28T15:00:36.397Z,100905.75
2023-04-28T15:03:22.771Z,100908.28
2023-04-28T15:06:09.430Z,100905.09
2023-04-28T15:08:57.528Z,100909.34
2023-04-28T15:11:43.807Z,100911.38
2023-04-28T15:14:30.411Z,100916.19
2023-04-28T15:17:16.962Z,100906.72
2023-04-28T15:20:03.938Z,100907.38
2023-04-28T15:22:50.552Z,100901.59
2023-04-28T15:25:38.476Z,100904.72
2023-04-28T15:28:25.043Z,100894.69
2023-04-28T15:31:11.780Z,100899.38
2023-04-28T15:33:58.238Z,100913.38
2023-04-28T15:36:44.767Z,100905.25
2023-04-28T15:39:31.988Z,100898.38
2023-04-28T15:42:19.733Z,100911.75
2023-04-28T15:45:07.739Z,100906.19
2023-04-28T15:47:55.178Z,100903.47
2023-04-28T15:50:41.924Z,100904.97
2023-04-28T15:53:28.542Z,100907.38
2023-04-28T15:56:15.086Z,100918.97
2023-04-28T15:59:03.519Z,100925.41
2023-04-28T16:01:49.956Z,100908.56
2023-04-28T16:04:40.280Z,100910.22
2023-04-28T16:07:26.873Z,100919.13
2023-04-28T16:10:14.569Z,100926.44
2023-04-28T16:13:05.198Z,100923.84
2023-04-28T16:15:53.109Z,100925.69
2023-04-28T16:18:39.425Z,100937.22
2023-04-28T16:21:25.843Z,100941.38
2023-04-28T16:24:12.734Z,100935.13
2023-04-28T16:26:59.399Z,100942.81
2023-04-28T16:29:45.885Z,100933.88
2023-04-28T16:32:37.237Z,100934.28
2023-04-28T16:35:26.722Z,100944.72
2023-04-28T16:38:14.824Z,100946.44
2023-04-28T16:41:01.168Z,100938.44
2023-04-28T16:43:47.669Z,100948.22
2023-04-28T16:46:33.954Z,100948.31
2023-04-28T16:49:21.869Z,100953.72
2023-04-28T16:52:08.972Z,100950.00
2023-04-28T16:54:55.394Z,100954.44
2023-04-28T16:57:41.863Z,100960.09
2023-04-28T17:00:28.063Z,100964.06
2023-04-28T17:03:14.465Z,100970.53
2023-04-28T17:06:04.436Z,100974.75
2023-04-28T17:08:50.596Z,100971.81
2023-04-28T17:11:37.650Z,100974.75
2023-04-28T17:14:23.991Z,100964.25
2023-04-28T17:17:10.745Z,100979.34
2023-04-28T17:19:58.712Z,100980.41
2023-04-28T17:22:46.720Z,100993.41
2023-04-28T17:25:33.070Z,100990.28
2023-04-28T17:28:19.462Z,100995.91
2023-04-28T17:31:06.433Z,101000.53
2023-04-28T17:33:54.182Z,100997.38
2023-04-28T17:36:41.186Z,100986.28
2023-04-28T17:39:29.032Z,100968.88
2023-04-28T17:42:16.581Z,100980.63
2023-04-28T17:45:04.512Z,100986.28
2023-04-28T17:47:51.107Z,100984.16
2023-04-28T17:50:37.293Z,100991.31
2023-04-28T17:53:23.722Z,100995.31
2023-04-28T17:56:11.539Z,100995.91
2023-04-28T17:58:58.148Z,100995.50
2023-04-28T18:01:44.492Z,100996.09
2023-04-28T18:04:31.324Z,101008.03
2023-04-28T18:07:18.218Z,101007.03
2023-04-28T18:10:05.692Z,101002.41
2023-04-28T18:12:54.249Z,100998.84
2023-04-28T18:15:41.367Z,101000.94
2023-04-28T18:18:30.229Z,101006.59
2023-04-28T18:21:18.055Z,101005.19
2023-04-28T18:24:04.194Z,101008.13
2023-04-28T18:26:50.925Z,101012.63
2023-04-28T18:29:38.521Z,101012.47
2023-04-28T18:32:25.176Z,101020.06
2023-04-28T18:35:11.591Z,101027.09
2023-04-28T18:38:00.975Z,101026.69
2023-04-28T18:40:47.514Z,101024.88
2023-04-28T18:43:34.702Z,101022.91
2023-04-28T18:46:22.662Z,101028.81
2023-04-28T18:49:09.635Z,101029.28
2023-04-28T18:51:55.927Z,101024.19
2023-04-28T18:54:42.391Z,101022.94
2023-04-28T18:57:29.015Z,101018.84
2023-04-28T19:00:15.368Z,101014.75
2023-04-28T19:03:04.157Z,101027.88
2023-04-28T19:05:50.879Z,101034.44
2023-04-28T19:08:38.939Z,101041.78
2023-04-28T19:11:25.746Z,101041.50
2023-04-28T19:14:12.068Z,101046.16
2023-04-28T19:16:58.577Z,101058.66
2023-04-28T19:19:46.245Z,101058.34
2023-04-28T19:22:34.857Z,101059.25
2023-04-28T19:25:21.176Z,101062.84
2023-04-28T19:28:08.263Z,101066.63
2023-04-28T19:30:54.777Z,101075.34
2023-04-28T19:33:41.538Z,101077.03
2023-04-28T19:36:29.309Z,101083.00
2023-04-28T19:39:16.344Z,101087.13
2023-04-28T19:42:03.052Z,101085.53
2023-04-28T19:44:54.285Z,101081.44
2023-04-28T19:47:40.939Z,101077.50
2023-04-28T19:50:26.872Z,101085.97
2023-04-28T19:53:14.876Z,101087.56
2023-04-28T19:56:02.103Z,101083.00
2023-04-28T19:58:48.697Z,101091.41
2023-04-28T20:01:35.422Z,101093.22
2023-04-28T20:04:22.348Z,101091.91
2023-04-28T20:07:10.335Z,101095.38
2023-04-28T20:09:58.100Z,101093.69
2023-04-28T20:12:44.610Z,101102.91
2023-04-28T20:15:31.390Z,101100.38
2023-04-28T20:18:17.801Z,101098.88
2023-04-28T20:21:04.305Z,101107.50
2023-04-28T20:23:50.700Z,101108.72
2023-04-28T20:26:38.593Z,101112.44
2023-04-28T20:29:25.181Z,101119.19
2023-04-28T20:32:11.691Z,101124.91
2023-04-28T20:34:58.074Z,101133.97
2023-04-28T20:37:44.594Z,101126.53
2023-04-28T20:40:31.129Z,101146.16
2023-04-28T20:43:18.893Z,101146.56
2023-04-28T20:46:09.947Z,101154.31
2023-04-28T20:48:56.549Z,101153.91
2023-04-28T20:51:45.210Z,101146.09
2023-04-28T20:54:32.615Z,101158.44
2023-04-28T20:57:18.774Z,101159.88
2023-04-28T21:00:08.053Z,101161.63
2023-04-28T21:02:54.681Z,101162.75
2023-04-28T21:05:41.345Z,101176.16
2023-04-28T21:08:29.736Z,101170.38
2023-04-28T21:11:17.549Z,101163.13
2023-04-28T22:00:10.880Z,101202.44
2023-04-28T22:03:01.087Z,101203.03
2023-04-28T22:05:48.170Z,101207.03
2023-04-28T22:08:34.353Z,101209.22
2023-04-28T22:11:20.440Z,101219.78
2023-04-28T22:14:06.475Z,101224.47
